Orondo, Washington
Current Conditions -  °F | °C
As of 9:55 PM on Friday 28 Nov 2014 (Local Time) from KEAT Reporting Station
Clear Clear  
Wind Chill:   Ceiling: Unl
Heat Index:   Visibility: NA
Dew Point: -3°   Wind: 17mph
Humidity: 51%   Direction: 280°W
Pressure: 29.32"   Gusts: NA
Location:  47.63°N, 120.22°W
Report Text: KEAT 290555Z AUTO 28015KT CLR 07/M03 A2932 RMK AO2 SLP929 60000 T00671028 10111 20056 53015
Loading
Personal Weather Stations






























Interactive Weather Map New forecast layout! Learn more

10-Day Weather Forecast

Advertisements
Track Severe Weather on mobile